PWSweather.com
Personal Weather Stations
Station Observations
ABQWX
Albuquerque, NM 87110

Albuquerque, NM 87110

Lat: 35.1305, Lon: -106.58571

Elevation: 5210

Station Type: LaCrosse

http://www.albuquerqueweather.info/

High Low Average
Temperature 59.4°F15.2°F 27.7°F-2.4°F 42.8°F6.0°F
Dew Point 26.4°F-3.1°F 12.5°F-10.8°F 18.4°F-7.6°F
Winds 3.7 mph SW6.0 mph SW Calm Calm 1.0 mph 1.6 mph
Wind Gusts 5.6 mph9.0 mph -- 2.2 mph3.5 mph
Humidity 54% 23% 39%
Pressure 30.07 in1018.30 in 29.82 in1009.80 in -
Precipitation 0.00 in0.00 in - -
Hour Temp Dew Point Humidity Winds Wind Gusts Pressure Precip Precip Rate Daily Precip Total
12:00 AM 33.4°F0.8°C 13.8°F-10.1°C 44% 0.3 mph ENE0.5 kmh ENE 1.1 mph1.8 kmh 30.04 in1017.3 mb 0.00 in0.0 mm 0.00 in/hr0.0 mm/hr 0.00 in0.0 mm
01:00 AM 31.8°F-0.1°C 13.4°F-10.3°C 46% Calm Calm -- 30.05 in1017.6 mb 0.00 in0.0 mm 0.00 in/hr0.0 mm/hr 0.00 in0.0 mm
02:00 AM 33.8°F1.0°C 15.7°F-9.1°C 47% 1.0 mph NW1.6 kmh NW 1.8 mph2.9 kmh 30.05 in1017.6 mb 0.00 in0.0 mm 0.00 in/hr0.0 mm/hr 0.00 in0.0 mm
03:00 AM 31.1°F-0.5°C 14.1°F-9.9°C 49% 0.7 mph NW1.1 kmh NW 1.6 mph2.6 kmh 30.04 in1017.3 mb 0.00 in0.0 mm 0.00 in/hr0.0 mm/hr 0.00 in0.0 mm
04:00 AM 29.7°F-1.3°C 12.8°F-10.7°C 49% Calm Calm 0.4 mph0.6 kmh 30.03 in1016.9 mb 0.00 in0.0 mm 0.00 in/hr0.0 mm/hr 0.00 in0.0 mm
05:00 AM 28.9°F-1.7°C 13.1°F-10.5°C 51% Calm Calm -- 30.03 in1016.9 mb 0.00 in0.0 mm 0.00 in/hr0.0 mm/hr 0.00 in0.0 mm
06:00 AM 27.9°F-2.3°C 12.5°F-10.8°C 52% 0.3 mph SSW0.5 kmh SSW 0.9 mph1.4 kmh 30.06 in1017.9 mb 0.00 in0.0 mm 0.00 in/hr0.0 mm/hr 0.00 in0.0 mm
07:00 AM 27.7°F-2.4°C 12.8°F-10.7°C 53% Calm Calm -- 30.06 in1017.9 mb 0.00 in0.0 mm 0.00 in/hr0.0 mm/hr 0.00 in0.0 mm
08:00 AM 29.3°F-1.5°C 14.7°F-9.6°C 54% 1.1 mph WSW1.8 kmh WSW 2.0 mph3.2 kmh 30.06 in1017.9 mb 0.00 in0.0 mm 0.00 in/hr0.0 mm/hr 0.00 in0.0 mm
09:00 AM 36.3°F2.4°C 19.9°F-6.7°C 51% 1.6 mph WSW2.6 kmh WSW 2.5 mph4.0 kmh 30.07 in1018.3 mb 0.00 in0.0 mm 0.00 in/hr0.0 mm/hr 0.00 in0.0 mm
10:00 AM 42.3°F5.7°C 22.9°F-5.1°C 46% 1.3 mph NW2.1 kmh NW 2.9 mph4.7 kmh 30.07 in1018.3 mb 0.00 in0.0 mm 0.00 in/hr0.0 mm/hr 0.00 in0.0 mm
11:00 AM 48.6°F9.2°C 24.7°F-4.1°C 39% 1.4 mph ESE2.3 kmh ESE 4.0 mph6.4 kmh 30.04 in1017.3 mb 0.00 in0.0 mm 0.00 in/hr0.0 mm/hr 0.00 in0.0 mm
12:00 PM 54.1°F12.3°C 26.4°F-3.1°C 34% 2.9 mph SW4.7 kmh SW 5.6 mph9.0 kmh 29.99 in1015.6 mb 0.00 in0.0 mm 0.00 in/hr0.0 mm/hr 0.00 in0.0 mm
01:00 PM 57.4°F14.1°C 25.3°F-3.7°C 29% 3.7 mph SW6.0 kmh SW 5.4 mph8.7 kmh 29.96 in1014.6 mb 0.00 in0.0 mm 0.00 in/hr0.0 mm/hr 0.00 in0.0 mm
02:00 PM 59.4°F15.2°C 25.3°F-3.7°C 27% 2.5 mph S4.0 kmh S 5.6 mph9.0 kmh 29.93 in1013.5 mb 0.00 in0.0 mm 0.00 in/hr0.0 mm/hr 0.00 in0.0 mm
03:00 PM 59.2°F15.1°C 22.4°F-5.3°C 24% 1.5 mph E2.4 kmh E 3.6 mph5.8 kmh 29.89 in1012.2 mb 0.00 in0.0 mm 0.00 in/hr0.0 mm/hr 0.00 in0.0 mm
04:00 PM 59.4°F15.2°C 21.5°F-5.8°C 23% 1.9 mph W3.1 kmh W 3.8 mph6.1 kmh 29.87 in1011.5 mb 0.00 in0.0 mm 0.00 in/hr0.0 mm/hr 0.00 in0.0 mm
05:00 PM 55.8°F13.2°C 21.3°F-5.9°C 26% 0.3 mph S0.5 kmh S 0.9 mph1.4 kmh 29.88 in1011.9 mb 0.00 in0.0 mm 0.00 in/hr0.0 mm/hr 0.00 in0.0 mm
06:00 PM 50.5°F10.3°C 19.4°F-7.0°C 29% 0.1 mph ENE0.2 kmh ENE 0.4 mph0.6 kmh 29.88 in1011.9 mb 0.00 in0.0 mm 0.00 in/hr0.0 mm/hr 0.00 in0.0 mm
07:00 PM 48.6°F9.2°C 19.3°F-7.1°C 31% 0.5 mph E0.8 kmh E 1.8 mph2.9 kmh 29.88 in1011.9 mb 0.00 in0.0 mm 0.00 in/hr0.0 mm/hr 0.00 in0.0 mm
08:00 PM 45.7°F7.6°C 18.2°F-7.7°C 33% 1.2 mph E1.9 kmh E 2.0 mph3.2 kmh 29.87 in1011.5 mb 0.00 in0.0 mm 0.00 in/hr0.0 mm/hr 0.00 in0.0 mm
09:00 PM 45.3°F7.4°C 17.9°F-7.8°C 33% 0.5 mph ESE0.8 kmh ESE 1.6 mph2.6 kmh 29.85 in1010.8 mb 0.00 in0.0 mm 0.00 in/hr0.0 mm/hr 0.00 in0.0 mm
10:00 PM 45.7°F7.6°C 16.7°F-8.5°C 31% 1.2 mph ESE1.9 kmh ESE 2.5 mph4.0 kmh 29.83 in1010.2 mb 0.00 in0.0 mm 0.00 in/hr0.0 mm/hr 0.00 in0.0 mm
11:00 PM 45.9°F7.7°C 16.9°F-8.4°C 31% 1.1 mph E1.8 kmh E 2.2 mph3.5 kmh 29.82 in1009.8 mb 0.00 in0.0 mm 0.00 in/hr0.0 mm/hr 0.00 in0.0 mm